Time;durP1;ratioP1;P1;durP2;ratioP2;P2;SDS_P1;SDS_P2;PMS_P1;PMS_P2;Temp;Humidity;BMP_temperature;BMP_pressure;BME280_temperature;BME280_humidity;BME280_pressure;Samples;Min_cycle;Max_cycle;Signal;HPM_P1;HPM_P2
2023/10/08 00:00:39;;;;;;;;;;;;;;;12.81;100.00;102279.50;4938986;28;19965;-91
2023/10/08 00:03:05;;;;;;;;;;;;;;;12.79;100.00;102291.97;4949843;28;19942;-92
2023/10/08 00:05:51;;;;;;;;;;;;;;;12.73;100.00;102302.78;4934048;28;20430;-92
2023/10/08 00:08:37;;;;;;;;;;;;;;;12.68;100.00;102316.22;4934031;28;19931;-94
2023/10/08 00:11:22;;;;;;;;;;;;;;;12.60;100.00;102321.75;4936362;28;20386;-92
2023/10/08 00:14:10;;;;;;;;;;;;;;;12.59;100.00;102324.50;4956530;28;19931;-90
2023/10/08 00:16:56;;;;;;;;;;;;;;;12.57;100.00;102300.63;4929917;28;19930;-91
2023/10/08 00:19:43;;;;;;;;;;;;;;;12.56;100.00;102298.88;4921900;28;19940;-92
2023/10/08 00:22:35;;;;;;;;;;;;;;;12.57;100.00;102299.72;4949028;28;19931;-92
2023/10/08 00:25:21;;;;;;;;;;;;;;;12.54;100.00;102292.75;4956107;28;19926;-92
2023/10/08 00:28:10;;;;;;;;;;;;;;;12.56;100.00;102282.06;4953889;28;19927;-91
2023/10/08 00:30:56;;;;;;;;;;;;;;;12.57;100.00;102276.72;4935066;28;20369;-90
2023/10/08 00:33:44;;;;;;;;;;;;;;;12.57;100.00;102258.13;4928896;28;19958;-90
2023/10/08 00:36:29;;;;;;;;;;;;;;;12.52;100.00;102277.78;4929125;28;19936;-93
2023/10/08 00:39:22;;;;;;;;;;;;;;;12.44;100.00;102310.75;4938495;28;19927;-92
2023/10/08 00:42:08;;;;;;;;;;;;;;;12.39;100.00;102266.63;4939048;28;19977;-90
2023/10/08 00:44:54;;;;;;;;;;;;;;;12.37;100.00;102346.38;4925589;28;19942;-92
2023/10/08 00:47:43;;;;;;;;;;;;;;;12.36;100.00;102326.03;4928965;28;19937;-89
2023/10/08 00:50:42;;;;;;;;;;;;;;;12.36;100.00;102305.66;4940560;28;19976;-93
2023/10/08 00:53:28;;;;;;;;;;;;;;;12.35;100.00;102346.41;4935801;28;19930;-89
2023/10/08 00:56:19;;;;;;;;;;;;;;;12.35;100.00;102353.50;4939872;28;19937;-88
2023/10/08 00:59:06;;;;;;;;;;;;;;;12.35;100.00;102341.09;4927800;28;20373;-90
2023/10/08 01:01:53;;;;;;;;;;;;;;;12.37;100.00;102322.47;4936024;28;20389;-91
2023/10/08 01:04:39;;;;;;;;;;;;;;;12.37;100.00;102301.22;4943752;28;20377;-91
2023/10/08 01:07:25;;;;;;;;;;;;;;;12.38;100.00;102312.72;4933454;28;20012;-91
2023/10/08 01:10:13;;;;;;;;;;;;;;;12.38;100.00;102333.97;4921751;28;20028;-90
2023/10/08 01:15:51;;;;;;;;;;;;;;;12.39;100.00;102348.97;4933805;28;19956;-92
2023/10/08 01:18:37;;;;;;;;;;;;;;;12.41;100.00;102347.16;4930292;28;19934;-93
2023/10/08 01:21:40;;;;;;;;;;;;;;;12.40;100.00;102364.88;4938186;28;19938;-91
2023/10/08 01:24:27;;;;;;;;;;;;;;;12.40;100.00;102374.59;4927740;28;20398;-92
2023/10/08 01:27:13;;;;;;;;;;;;;;;12.41;100.00;102379.03;4932020;28;20014;-92
2023/10/08 01:30:09;;;;;;;;;;;;;;;12.42;100.00;102388.75;4930803;28;19934;-92
2023/10/08 01:32:55;;;;;;;;;;;;;;;12.42;100.00;102396.72;4948877;28;20326;-92
2023/10/08 01:35:41;;;;;;;;;;;;;;;12.43;100.00;102395.78;4948448;28;19926;-91
2023/10/08 01:38:27;;;;;;;;;;;;;;;12.42;100.00;102396.72;4936160;28;19942;-93
2023/10/08 01:41:19;;;;;;;;;;;;;;;12.46;100.00;102390.38;4926808;28;20146;-90
2023/10/08 01:44:08;;;;;;;;;;;;;;;12.45;100.00;102391.28;4921692;28;19938;-91
2023/10/08 01:46:57;;;;;;;;;;;;;;;12.44;100.00;102387.78;4950236;28;19988;-91
2023/10/08 01:49:44;;;;;;;;;;;;;;;12.46;100.00;102382.41;4953338;28;19953;-91
2023/10/08 01:52:30;;;;;;;;;;;;;;;12.45;100.00;102378.00;4941536;28;19969;-93
2023/10/08 01:55:19;;;;;;;;;;;;;;;12.45;100.00;102388.63;4940070;28;20021;-91
2023/10/08 01:58:05;;;;;;;;;;;;;;;12.44;100.00;102398.41;4920744;28;19950;-91
2023/10/08 02:00:52;;;;;;;;;;;;;;;12.46;100.00;102390.38;4938056;28;19941;-92
2023/10/08 02:03:37;;;;;;;;;;;;;;;12.49;100.00;102395.63;4942266;28;19930;-90
2023/10/08 02:06:23;;;;;;;;;;;;;;;12.50;100.00;102398.19;4939984;28;19930;-93
2023/10/08 02:09:09;;;;;;;;;;;;;;;12.49;100.00;102388.50;4938244;28;19937;-91
2023/10/08 02:11:55;;;;;;;;;;;;;;;12.47;100.00;102390.34;4924986;28;20021;-90
2023/10/08 02:14:41;;;;;;;;;;;;;;;12.49;100.00;102388.50;4930918;28;19930;-91
2023/10/08 02:17:28;;;;;;;;;;;;;;;12.49;100.00;102390.31;4935355;28;19930;-92
2023/10/08 02:20:16;;;;;;;;;;;;;;;12.52;100.00;102392.84;4942106;28;20424;-92
2023/10/08 02:23:02;;;;;;;;;;;;;;;12.55;100.00;102395.44;4933612;28;20329;-92
2023/10/08 02:25:47;;;;;;;;;;;;;;;12.58;100.00;102395.34;4952069;28;19937;-93
2023/10/08 02:28:33;;;;;;;;;;;;;;;12.61;100.00;102405.88;4931515;28;19962;-92
2023/10/08 02:31:19;;;;;;;;;;;;;;;12.62;100.00;102407.63;4933768;28;19926;-93
2023/10/08 02:34:07;;;;;;;;;;;;;;;12.61;100.00;102411.19;4944016;28;19935;-92
2023/10/08 02:36:56;;;;;;;;;;;;;;;12.63;100.00;102404.03;4939049;28;19922;-91
2023/10/08 02:39:42;;;;;;;;;;;;;;;12.65;100.00;102409.31;4947854;28;19927;-93
2023/10/08 02:42:28;;;;;;;;;;;;;;;12.63;100.00;102412.03;4938385;28;20013;-91
2023/10/08 02:45:14;;;;;;;;;;;;;;;12.61;100.00;102405.88;4935681;28;20974;-91
2023/10/08 02:47:59;;;;;;;;;;;;;;;12.62;100.00;102399.66;4954553;28;19942;-91
2023/10/08 02:50:45;;;;;;;;;;;;;;;12.63;100.00;102404.03;4952209;28;20068;-92
2023/10/08 02:53:31;;;;;;;;;;;;;;;12.65;100.00;102419.06;4936619;28;20680;-93
2023/10/08 02:56:18;;;;;;;;;;;;;;;12.63;100.00;102419.09;4929404;28;19926;-91
2023/10/08 02:59:04;;;;;;;;;;;;;;;12.61;100.00;102395.25;4942566;28;19934;-93
2023/10/08 03:01:53;;;;;;;;;;;;;;;12.58;100.00;102389.16;4926111;28;20018;-92
2023/10/08 03:04:45;;;;;;;;;;;;;;;12.57;100.00;102379.44;4927368;28;19965;-92
2023/10/08 03:07:35;;;;;;;;;;;;;;;12.56;100.00;102396.28;4931858;28;19990;-92
2023/10/08 03:10:22;;;;;;;;;;;;;;;12.56;100.00;102404.25;4945341;28;19930;-92
2023/10/08 03:13:09;;;;;;;;;;;;;;;12.55;100.00;102410.50;4935430;28;19982;-91
2023/10/08 03:18:50;;;;;;;;;;;;;;;12.56;100.00;102418.44;4941993;28;19933;-92
2023/10/08 03:24:37;;;;;;;;;;;;;;;12.60;100.00;102424.53;4950247;28;19977;-92
2023/10/08 03:27:26;;;;;;;;;;;;;;;12.61;100.00;102428.91;4936282;28;19926;-92
2023/10/08 03:30:14;;;;;;;;;;;;;;;12.63;100.00;102443.91;4928868;28;19931;-92
2023/10/08 03:33:04;;;;;;;;;;;;;;;12.65;100.00;102449.19;4937073;28;19984;-90
2023/10/08 03:35:52;;;;;;;;;;;;;;;12.66;100.00;102455.34;4941993;28;19984;-91
2023/10/08 03:38:44;;;;;;;;;;;;;;;12.68;100.00;102466.81;4925291;28;19926;-92
2023/10/08 03:41:30;;;;;;;;;;;;;;;12.68;100.00;102491.59;4935742;28;19934;-91
2023/10/08 03:44:16;;;;;;;;;;;;;;;12.68;100.00;102494.25;4948739;28;19938;-89
2023/10/08 03:47:10;;;;;;;;;;;;;;;12.68;100.00;102501.38;4940050;28;19945;-92
2023/10/08 03:49:56;;;;;;;;;;;;;;;12.67;100.00;102507.56;4931708;28;19941;-92
2023/10/08 03:52:43;;;;;;;;;;;;;;;12.67;100.00;102502.25;4946045;28;20025;-94
2023/10/08 03:55:34;;;;;;;;;;;;;;;12.66;100.00;102504.06;4942256;28;19926;-92
2023/10/08 03:58:46;;;;;;;;;;;;;;;12.65;100.00;102504.97;4943429;28;20083;-94
2023/10/08 04:01:32;;;;;;;;;;;;;;;12.66;100.00;102497.84;4943157;28;19953;-92
2023/10/08 04:04:18;;;;;;;;;;;;;;;12.63;100.00;102497.03;4935944;28;20528;-91
2023/10/08 04:12:54;;;;;;;;;;;;;;;12.59;100.00;102513.97;4944196;28;20407;-94
2023/10/08 04:15:40;;;;;;;;;;;;;;;12.60;100.00;102509.53;4958253;28;19930;-93
2023/10/08 04:18:26;;;;;;;;;;;;;;;12.59;100.00;102524.59;4961166;28;19930;-92
2023/10/08 04:21:16;;;;;;;;;;;;;;;12.58;100.00;102525.50;4958365;28;19932;-91
2023/10/08 04:24:05;;;;;;;;;;;;;;;12.57;100.00;102537.06;4956482;28;19926;-92
2023/10/08 04:26:51;;;;;;;;;;;;;;;12.56;100.00;102530.00;4934198;28;19922;-93
2023/10/08 04:29:37;;;;;;;;;;;;;;;12.57;100.00;102529.09;4930263;28;20065;-94
2023/10/08 04:32:24;;;;;;;;;;;;;;;12.58;100.00;102529.97;4935335;28;21938;-94
2023/10/08 04:35:15;;;;;;;;;;;;;;;12.58;100.00;102538.81;4935570;28;19969;-94
2023/10/08 04:38:00;;;;;;;;;;;;;;;12.57;100.00;102536.19;4944812;28;20061;-93
2023/10/08 04:40:48;;;;;;;;;;;;;;;12.57;100.00;102541.50;4947785;28;19922;-92
2023/10/08 04:43:37;;;;;;;;;;;;;;;12.55;100.00;102538.00;4929511;28;19933;-93
2023/10/08 04:49:30;;;;;;;;;;;;;;;12.53;100.00;102540.69;4944554;28;19930;-94
2023/10/08 04:52:16;;;;;;;;;;;;;;;12.54;100.00;102533.63;4926493;28;19952;-93
2023/10/08 04:55:12;;;;;;;;;;;;;;;12.52;100.00;102520.38;4923927;28;19937;-93
2023/10/08 04:57:59;;;;;;;;;;;;;;;12.51;100.00;102523.94;4923350;28;19950;-93
2023/10/08 05:00:53;;;;;;;;;;;;;;;12.52;100.00;102522.16;4933307;28;19930;-88
2023/10/08 05:03:49;;;;;;;;;;;;;;;12.49;100.00;102523.97;4934133;28;19930;-90
2023/10/08 05:12:28;;;;;;;;;;;;;;;12.49;100.00;102529.28;4943018;28;20290;-93
2023/10/08 05:21:03;;;;;;;;;;;;;;;12.52;100.00;102543.41;4944742;28;19985;-94
2023/10/08 05:24:08;;;;;;;;;;;;;;;12.52;100.00;102538.97;4935060;28;19985;-95
2023/10/08 05:27:15;;;;;;;;;;;;;;;12.53;100.00;102530.06;4945247;28;20285;-93
2023/10/08 05:30:17;;;;;;;;;;;;;;;12.53;100.00;102532.72;4956803;28;20437;-90
2023/10/08 05:33:12;;;;;;;;;;;;;;;12.51;100.00;102521.28;4937057;28;19989;-91
2023/10/08 05:36:09;;;;;;;;;;;;;;;12.52;100.00;102530.13;4931169;28;19981;-93
2023/10/08 05:39:01;;;;;;;;;;;;;;;12.53;100.00;102546.00;4936784;28;19930;-92
2023/10/08 05:42:06;;;;;;;;;;;;;;;12.52;100.00;102552.25;4938935;28;20504;-94
2023/10/08 05:48:13;;;;;;;;;;;;;;;12.50;100.00;102564.72;4941402;28;19938;-93
2023/10/08 05:51:13;;;;;;;;;;;;;;;12.46;100.00;102550.63;4931879;28;20017;-93
2023/10/08 05:53:59;;;;;;;;;;;;;;;12.43;100.00;102533.91;4930721;28;19946;-92
2023/10/08 05:57:05;;;;;;;;;;;;;;;12.44;100.00;102539.19;4926354;28;19977;-92
2023/10/08 06:00:29;;;;;;;;;;;;;;;12.40;100.00;102550.78;4955531;28;19953;-91
2023/10/08 06:03:09;;;;;;;;;;;;;;;12.41;100.00;102559.66;4940172;28;19985;-89
2023/10/08 06:06:22;;;;;;;;;;;;;;;12.40;100.00;102584.44;4935090;28;20457;-92
2023/10/08 06:12:10;;;;;;;;;;;;;;;12.36;100.00;102583.63;4955710;28;19930;-92
2023/10/08 06:15:08;;;;;;;;;;;;;;;12.37;100.00;102582.75;4937055;28;20017;-91
2023/10/08 06:18:04;;;;;;;;;;;;;;;12.34;100.00;102594.31;4937263;28;19930;-93
2023/10/08 06:20:54;;;;;;;;;;;;;;;12.35;100.00;102593.41;4945209;28;20353;-93
2023/10/08 06:23:42;;;;;;;;;;;;;;;12.34;100.00;102588.13;4944037;28;19927;-91
2023/10/08 06:26:33;;;;;;;;;;;;;;;12.32;100.00;102598.78;4941237;28;20379;-93
2023/10/08 06:29:26;;;;;;;;;;;;;;;12.33;100.00;102584.59;4930872;28;19926;-92
2023/10/08 06:32:12;;;;;;;;;;;;;;;12.33;100.00;102603.19;4930258;28;20342;-93
2023/10/08 06:34:58;;;;;;;;;;;;;;;12.32;100.00;102595.28;4957058;28;19930;-92
2023/10/08 06:37:44;;;;;;;;;;;;;;;12.33;100.00;102575.75;4945151;28;20411;-92
2023/10/08 06:40:40;;;;;;;;;;;;;;;12.31;100.00;102562.50;4955580;28;19980;-93
2023/10/08 06:43:26;;;;;;;;;;;;;;;12.30;100.00;102547.50;4929657;28;20339;-93
2023/10/08 06:46:12;;;;;;;;;;;;;;;12.32;100.00;102528.88;4923094;28;19926;-93
2023/10/08 06:49:02;;;;;;;;;;;;;;;12.29;100.00;102553.72;4930329;28;20406;-93
2023/10/08 06:51:50;;;;;;;;;;;;;;;12.32;100.00;102580.19;4935938;28;20293;-93
2023/10/08 06:54:36;;;;;;;;;;;;;;;12.31;100.00;102589.06;4938575;28;20060;-92
2023/10/08 06:57:26;;;;;;;;;;;;;;;12.32;100.00;102605.88;4953723;28;19937;-92
2023/10/08 07:00:33;;;;;;;;;;;;;;;12.33;100.00;102635.03;4941957;28;19926;-92
2023/10/08 07:03:18;;;;;;;;;;;;;;;12.38;100.00;102645.59;4947747;28;19941;-93
2023/10/08 07:06:16;;;;;;;;;;;;;;;12.42;100.00;102635.75;4929463;28;20484;-90
2023/10/08 07:09:05;;;;;;;;;;;;;;;12.44;100.00;102640.13;4931494;28;20007;-92
2023/10/08 07:11:54;;;;;;;;;;;;;;;12.51;100.00;102646.13;4940999;28;19941;-91
2023/10/08 07:14:43;;;;;;;;;;;;;;;12.57;100.00;102626.50;4929116;28;19962;-91
2023/10/08 07:17:40;;;;;;;;;;;;;;;12.54;100.00;102590.28;4951075;28;20897;-91
2023/10/08 07:20:25;;;;;;;;;;;;;;;12.54;100.00;102595.59;4937535;28;19926;-90
2023/10/08 07:24:16;;;;;;;;;;;;;;;12.55;100.00;102634.53;4932795;28;19934;-91
2023/10/08 07:26:35;;;;;;;;;;;;;;;12.59;100.00;102630.03;4942329;28;20095;-90
2023/10/08 07:29:22;;;;;;;;;;;;;;;12.65;100.00;102621.00;4939076;28;19930;-92
2023/10/08 07:32:11;;;;;;;;;;;;;;;12.70;100.00;102614.66;4939462;28;19934;-91
2023/10/08 07:35:14;;;;;;;;;;;;;;;12.74;100.00;102580.91;4952785;28;19930;-91
2023/10/08 07:38:02;;;;;;;;;;;;;;;12.78;100.00;102582.56;4938806;28;19930;-89
2023/10/08 07:40:48;;;;;;;;;;;;;;;12.79;100.00;102605.56;4930864;28;20389;-91
2023/10/08 07:43:33;;;;;;;;;;;;;;;12.80;100.00;102651.63;4952295;28;19933;-91
2023/10/08 07:46:19;;;;;;;;;;;;;;;12.79;100.00;102632.16;4928850;28;19930;-92
2023/10/08 07:49:05;;;;;;;;;;;;;;;12.80;100.00;102606.44;4942847;28;19927;-92
2023/10/08 07:51:51;;;;;;;;;;;;;;;12.83;100.00;102596.59;4953383;28;19933;-91
2023/10/08 07:54:37;;;;;;;;;;;;;;;12.87;100.00;102632.81;4927565;28;19935;-93
2023/10/08 07:57:28;;;;;;;;;;;;;;;12.95;100.00;102679.56;4932456;28;20913;-92
2023/10/08 08:00:25;;;;;;;;;;;;;;;13.03;100.00;102685.59;4943200;28;19981;-93
2023/10/08 08:03:11;;;;;;;;;;;;;;;13.07;100.00;102697.88;4939929;28;19984;-92
2023/10/08 08:06:00;;;;;;;;;;;;;;;13.11;100.00;102709.28;4953011;28;20005;-92
2023/10/08 08:08:46;;;;;;;;;;;;;;;13.15;100.00;102741.13;4940521;28;19926;-92
2023/10/08 08:11:36;;;;;;;;;;;;;;;13.20;100.00;102756.06;4933908;28;19938;-93
2023/10/08 08:14:24;;;;;;;;;;;;;;;13.25;100.00;102762.13;4938839;28;19930;-93
2023/10/08 08:17:15;;;;;;;;;;;;;;;13.29;100.00;102754.03;4937218;28;20013;-93
2023/10/08 08:20:17;;;;;;;;;;;;;;;13.32;100.00;102734.47;4943469;28;19930;-94
2023/10/08 08:23:06;;;;;;;;;;;;;;;13.35;100.00;102721.06;4950720;28;19942;-93
2023/10/08 08:28:56;;;;;;;;;;;;;;;13.46;100.00;102717.28;4950371;28;20110;-94
2023/10/08 08:31:46;;;;;;;;;;;;;;;13.49;100.00;102719.84;4953621;28;19926;-91
2023/10/08 08:34:31;;;;;;;;;;;;;;;13.50;100.00;102726.94;4942252;28;19949;-93
2023/10/08 08:37:17;;;;;;;;;;;;;;;13.53;100.00;102734.81;4954550;28;19985;-93
2023/10/08 08:40:09;;;;;;;;;;;;;;;13.54;100.00;102721.47;4938076;28;19931;-93
2023/10/08 08:42:58;;;;;;;;;;;;;;;13.56;100.00;102719.63;4941389;28;20530;-92
2023/10/08 08:45:44;;;;;;;;;;;;;;;13.56;100.00;102724.06;4938838;28;19930;-93
2023/10/08 08:48:30;;;;;;;;;;;;;;;13.57;100.00;102731.16;4948843;28;20013;-93
2023/10/08 08:51:15;;;;;;;;;;;;;;;13.58;100.00;102722.25;4934431;28;19930;-92
2023/10/08 08:54:06;;;;;;;;;;;;;;;13.58;100.00;102711.63;4931171;28;19989;-93
2023/10/08 08:56:51;;;;;;;;;;;;;;;13.58;100.00;102716.94;4939168;28;21458;-91
2023/10/08 08:59:37;;;;;;;;;;;;;;;13.61;100.00;102716.84;4924419;28;19922;-92
2023/10/08 09:02:22;;;;;;;;;;;;;;;13.64;100.00;102706.13;4927012;28;20026;-92
2023/10/08 09:05:32;;;;;;;;;;;;;;;13.64;100.00;102711.44;4952408;28;20025;-92
2023/10/08 09:08:18;;;;;;;;;;;;;;;13.69;100.00;102721.94;4939729;28;19927;-90
2023/10/08 09:11:04;;;;;;;;;;;;;;;13.71;100.00;102707.69;4941126;28;20293;-90
2023/10/08 09:13:50;;;;;;;;;;;;;;;13.76;100.00;102704.00;4955308;28;19942;-92
2023/10/08 09:16:36;;;;;;;;;;;;;;;13.81;100.00;102684.34;4955996;28;19930;-92
2023/10/08 09:19:24;;;;;;;;;;;;;;;13.88;100.00;102694.81;4926838;28;19926;-91
2023/10/08 09:22:19;;;;;;;;;;;;;;;13.91;100.00;102692.91;4930963;28;19926;-92
2023/10/08 09:25:07;;;;;;;;;;;;;;;13.99;100.00;102703.31;4942300;28;19992;-94
2023/10/08 09:27:55;;;;;;;;;;;;;;;14.03;100.00;102697.00;4931909;28;20400;-90
2023/10/08 09:30:41;;;;;;;;;;;;;;;14.06;100.00;102696.03;4938458;28;19948;-92
2023/10/08 09:33:27;;;;;;;;;;;;;;;14.11;100.00;102718.06;4947747;28;19926;-93
2023/10/08 09:36:18;;;;;;;;;;;;;;;14.16;100.00;102717.91;4944292;28;19926;-90
2023/10/08 09:39:06;;;;;;;;;;;;;;;14.20;100.00;102717.78;4943218;28;19976;-93
2023/10/08 09:41:56;;;;;;;;;;;;;;;14.22;100.00;102723.06;4944342;28;19961;-91
2023/10/08 09:44:44;;;;;;;;;;;;;;;14.22;100.00;102725.72;4958600;28;19980;-92
2023/10/08 09:47:30;;;;;;;;;;;;;;;14.26;100.00;102722.91;4958517;28;19937;-92
2023/10/08 09:50:15;;;;;;;;;;;;;;;14.28;100.00;102714.88;4924433;28;20437;-91
2023/10/08 09:53:06;;;;;;;;;;;;;;;14.33;100.00;102709.41;4927006;28;20400;-93
2023/10/08 09:55:58;;;;;;;;;;;;;;;14.40;100.00;102705.63;4931611;28;19931;-91
2023/10/08 09:58:44;;;;;;;;;;;;;;;14.41;100.00;102702.03;4925971;28;19937;-89
2023/10/08 10:01:32;;;;;;;;;;;;;;;14.41;100.00;102710.03;4932669;28;19930;-90
2023/10/08 10:04:31;;;;;;;;;;;;;;;14.45;100.00;102706.34;4931162;28;19970;-91
2023/10/08 10:07:20;;;;;;;;;;;;;;;14.46;100.00;102702.75;4929229;28;20279;-90
2023/10/08 10:10:13;;;;;;;;;;;;;;;14.48;100.00;102692.03;4941544;28;20020;-91
2023/10/08 10:13:02;;;;;;;;;;;;;;;14.48;100.00;102682.25;4942031;28;19961;-93
2023/10/08 10:15:48;;;;;;;;;;;;;;;14.49;100.00;102683.13;4943557;28;19945;-92
2023/10/08 10:18:34;;;;;;;;;;;;;;;14.49;100.00;102692.00;4945691;28;19922;-94
2023/10/08 10:21:27;;;;;;;;;;;;;;;14.51;100.00;102697.28;4934297;28;20400;-91
2023/10/08 10:24:23;;;;;;;;;;;;;;;14.53;100.00;102698.09;4946518;28;19937;-93
2023/10/08 10:27:14;;;;;;;;;;;;;;;14.51;100.00;102719.44;4947390;28;20057;-91
2023/10/08 10:30:08;;;;;;;;;;;;;;;14.53;100.00;102717.63;4933528;28;19961;-92
2023/10/08 10:32:54;;;;;;;;;;;;;;;14.55;100.00;102716.69;4935373;28;20539;-93
2023/10/08 10:35:50;;;;;;;;;;;;;;;14.60;100.00;102730.75;4945359;28;19961;-92
2023/10/08 10:38:37;;;;;;;;;;;;;;;14.67;100.00;102725.16;4934941;28;19922;-91
2023/10/08 10:41:22;;;;;;;;;;;;;;;14.67;100.00;102724.31;4930509;28;19922;-93
2023/10/08 10:44:14;;;;;;;;;;;;;;;14.67;100.00;102713.63;4956727;28;19997;-92
2023/10/08 10:52:53;;;;;;;;;;;;;;;14.77;100.00;102704.44;4945445;28;19937;-92
2023/10/08 10:55:47;;;;;;;;;;;;;;;14.78;100.00;102668.84;4940992;28;20287;-92
2023/10/08 10:58:39;;;;;;;;;;;;;;;14.77;100.00;102667.09;4943695;28;20515;-92
2023/10/08 11:01:44;;;;;;;;;;;;;;;14.82;100.00;102671.41;4942403;28;20388;-92
2023/10/08 11:04:30;;;;;;;;;;;;;;;14.90;100.00;102680.03;4942430;28;20037;-91
2023/10/08 11:07:19;;;;;;;;;;;;;;;14.94;100.00;102677.19;4934659;28;20468;-91
2023/10/08 11:10:09;;;;;;;;;;;;;;;15.01;100.00;102672.53;4935144;28;19937;-92
2023/10/08 11:12:58;;;;;;;;;;;;;;;15.06;100.00;102673.25;4940198;28;20318;-92
2023/10/08 11:15:49;;;;;;;;;;;;;;;15.14;100.00;102680.09;4942795;28;19941;-91
2023/10/08 11:18:36;;;;;;;;;;;;;;;15.19;100.00;102683.44;4931700;28;19926;-93
2023/10/08 11:21:24;;;;;;;;;;;;;;;15.26;100.00;102676.97;4935247;28;19937;-91
2023/10/08 11:24:09;;;;;;;;;;;;;;;15.36;100.00;102668.63;4948763;28;20281;-92
2023/10/08 11:30:00;;;;;;;;;;;;;;;15.48;100.00;102646.84;4939095;28;19930;-92
2023/10/08 11:32:48;;;;;;;;;;;;;;;15.56;100.00;102658.09;4932474;28;19997;-92
2023/10/08 11:35:34;;;;;;;;;;;;;;;15.60;100.00;102640.16;4931206;28;20387;-92
2023/10/08 11:38:22;;;;;;;;;;;;;;;15.58;100.00;102637.53;4953930;28;20296;-92
2023/10/08 11:41:20;;;;;;;;;;;;;;;15.58;100.00;102640.22;4938499;28;20441;-86
2023/10/08 11:44:08;;;;;;;;;;;;;;;15.60;100.00;102638.34;4942061;28;19981;-91
2023/10/08 11:47:10;;;;;;;;;;;;;;;15.63;100.00;102644.50;4937827;28;20484;-92
2023/10/08 11:50:09;;;;;;;;;;;;;;;15.67;100.00;102638.09;4937604;28;20536;-91
2023/10/08 11:53:01;;;;;;;;;;;;;;;15.73;100.00;102622.72;4934447;28;19937;-91
2023/10/08 11:55:47;;;;;;;;;;;;;;;15.83;100.00;102612.56;4923847;28;19934;-91
2023/10/08 11:58:37;;;;;;;;;;;;;;;15.84;100.00;102622.31;4950958;28;20088;-90
2023/10/08 12:01:23;;;;;;;;;;;;;;;15.85;100.00;102629.38;4935956;28;19930;-85
2023/10/08 12:04:15;;;;;;;;;;;;;;;15.84;100.00;102624.09;4920000;28;20025;-90
2023/10/08 12:07:07;;;;;;;;;;;;;;;15.84;100.00;102611.63;4934259;28;20009;-89
2023/10/08 12:09:54;;;;;;;;;;;;;;;15.86;100.00;102615.09;4935045;28;19934;-90
2023/10/08 12:12:42;;;;;;;;;;;;;;;15.88;100.00;102628.41;4925173;28;19930;-90
2023/10/08 12:15:38;;;;;;;;;;;;;;;15.86;100.00;102635.59;4931140;28;19930;-90
2023/10/08 12:18:26;;;;;;;;;;;;;;;15.83;100.00;102643.72;4922249;28;19930;-88
2023/10/08 12:21:15;;;;;;;;;;;;;;;15.76;100.00;102635.09;4934602;28;20310;-89
2023/10/08 12:24:04;;;;;;;;;;;;;;;15.70;100.00;102630.84;4921688;28;19934;-88
2023/10/08 12:26:51;;;;;;;;;;;;;;;15.66;100.00;102618.56;4935126;28;19930;-84
2023/10/08 12:29:38;;;;;;;;;;;;;;;15.69;100.00;102628.25;4934955;28;20030;-90
2023/10/08 12:32:26;;;;;;;;;;;;;;;15.70;100.00;102633.50;4946453;28;19930;-89
2023/10/08 12:35:14;;;;;;;;;;;;;;;15.69;100.00;102629.09;4926872;28;20338;-89
2023/10/08 12:38:00;;;;;;;;;;;;;;;15.64;100.00;102616.88;4927005;28;19934;-87
2023/10/08 12:40:52;;;;;;;;;;;;;;;15.64;100.00;102608.88;4938834;28;20364;-88
2023/10/08 12:43:39;;;;;;;;;;;;;;;15.64;100.00;102616.88;4946860;28;19990;-90
2023/10/08 12:46:25;;;;;;;;;;;;;;;15.64;100.00;102624.88;4923929;28;19949;-87
2023/10/08 12:49:11;;;;;;;;;;;;;;;15.56;100.00;102626.06;4925390;28;19938;-89
2023/10/08 12:51:58;;;;;;;;;;;;;;;15.56;100.00;102615.38;4933154;28;19941;-89
2023/10/08 12:54:45;;;;;;;;;;;;;;;15.56;100.00;102625.19;4924880;28;19934;-90
2023/10/08 12:57:34;;;;;;;;;;;;;;;15.54;100.00;102641.28;4920776;28;20398;-89
2023/10/08 13:00:23;;;;;;;;;;;;;;;15.50;100.00;102631.63;4920124;28;20068;-89
2023/10/08 13:03:23;;;;;;;;;;;;;;;15.50;100.00;102617.41;4937600;28;20113;-90
2023/10/08 13:06:15;;;;;;;;;;;;;;;15.50;100.00;102617.41;4922428;28;19961;-89
2023/10/08 13:09:00;;;;;;;;;;;;;;;15.53;100.00;102609.28;4933437;28;19937;-90
2023/10/08 13:11:46;;;;;;;;;;;;;;;15.54;100.00;102609.25;4944670;28;19931;-89
2023/10/08 13:14:34;;;;;;;;;;;;;;;15.58;100.00;102605.50;4931815;28;19930;-89
2023/10/08 13:17:20;;;;;;;;;;;;;;;15.67;100.00;102592.72;4937798;28;19936;-87
2023/10/08 13:20:11;;;;;;;;;;;;;;;15.74;100.00;102583.53;4945039;28;20026;-89
2023/10/08 13:22:57;;;;;;;;;;;;;;;15.80;100.00;102607.31;4944487;28;19930;-91
2023/10/08 13:25:42;;;;;;;;;;;;;;;15.78;100.00;102611.88;4946022;28;19926;-89
2023/10/08 13:28:28;;;;;;;;;;;;;;;15.81;100.00;102621.56;4944474;28;19930;-89
2023/10/08 13:31:16;;;;;;;;;;;;;;;15.82;100.00;102624.19;4945765;28;20142;-89
2023/10/08 13:34:03;;;;;;;;;;;;;;;15.80;100.00;102644.72;4944856;28;20078;-90
2023/10/08 13:36:49;;;;;;;;;;;;;;;15.77;100.00;102634.16;4923598;28;19926;-88
2023/10/08 13:39:40;;;;;;;;;;;;;;;15.79;100.00;102618.09;4924685;28;20382;-89
2023/10/08 13:42:27;;;;;;;;;;;;;;;15.77;100.00;102594.13;4929200;28;19946;-89
2023/10/08 13:45:26;;;;;;;;;;;;;;;15.77;100.00;102596.78;4937210;28;19931;-89
2023/10/08 13:48:13;;;;;;;;;;;;;;;15.80;100.00;102601.13;4934305;28;20329;-88
2023/10/08 13:51:00;;;;;;;;;;;;;;;15.83;100.00;102609.88;4928654;28;19935;-89
2023/10/08 13:53:52;;;;;;;;;;;;;;;15.82;100.00;102597.47;4945214;28;19930;-89
2023/10/08 13:56:38;;;;;;;;;;;;;;;15.80;100.00;102604.66;4945596;28;20349;-89
2023/10/08 13:59:24;;;;;;;;;;;;;;;15.79;100.00;102591.38;4919434;28;19930;-89
2023/10/08 14:02:19;;;;;;;;;;;;;;;15.74;100.00;102579.06;4932856;28;20013;-88
2023/10/08 14:05:08;;;;;;;;;;;;;;;15.72;100.00;102588.97;4933097;28;19988;-89
2023/10/08 14:07:54;;;;;;;;;;;;;;;15.72;100.00;102604.97;4931993;28;20401;-89
2023/10/08 14:10:43;;;;;;;;;;;;;;;15.71;100.00;102592.56;4924682;28;19930;-89
2023/10/08 14:13:32;;;;;;;;;;;;;;;15.70;100.00;102587.28;4929941;28;19938;-89
2023/10/08 14:16:22;;;;;;;;;;;;;;;15.69;100.00;102590.88;4931152;28;20390;-88
2023/10/08 14:19:12;;;;;;;;;;;;;;;15.69;100.00;102569.53;4936073;28;20005;-90
2023/10/08 14:22:03;;;;;;;;;;;;;;;15.69;100.00;102559.69;4934920;28;20337;-88
2023/10/08 14:24:58;;;;;;;;;;;;;;;15.68;100.00;102554.44;4926727;28;20460;-89
2023/10/08 14:27:51;;;;;;;;;;;;;;;15.64;100.00;102539.47;4923858;28;19989;-88
2023/10/08 14:30:41;;;;;;;;;;;;;;;15.59;100.00;102553.84;4928784;28;21893;-88
2023/10/08 14:33:31;;;;;;;;;;;;;;;15.57;100.00;102550.38;4927037;28;19937;-88
2023/10/08 14:45:31;;;;;;;;;;;;;;;15.51;100.00;102536.44;4949545;28;20562;-88
2023/10/08 14:48:18;;;;;;;;;;;;;;;15.51;100.00;102539.94;4949950;28;19930;-89
2023/10/08 14:51:06;;;;;;;;;;;;;;;15.54;100.00;102525.63;4933380;28;20008;-88
2023/10/08 14:53:52;;;;;;;;;;;;;;;15.54;100.00;102517.59;4926050;28;19934;-89
2023/10/08 14:56:39;;;;;;;;;;;;;;;15.57;100.00;102526.34;4948214;28;20009;-89
2023/10/08 14:59:28;;;;;;;;;;;;;;;15.63;100.00;102516.38;4921064;28;19937;-89
2023/10/08 15:02:13;;;;;;;;;;;;;;;15.64;100.00;102504.75;4947546;28;19976;-88
2023/10/08 15:05:00;;;;;;;;;;;;;;;15.65;100.00;102499.38;4947236;28;19989;-88
2023/10/08 15:07:46;;;;;;;;;;;;;;;15.65;100.00;102496.69;4933789;28;19949;-89
2023/10/08 15:10:32;;;;;;;;;;;;;;;15.64;100.00;102492.28;4924038;28;19973;-87
2023/10/08 15:13:21;;;;;;;;;;;;;;;15.60;100.00;102486.19;4932902;28;20491;-89
2023/10/08 15:16:06;;;;;;;;;;;;;;;15.57;100.00;102482.75;4948532;28;19934;-88